Time;durP1;ratioP1;P1;durP2;ratioP2;P2;SDS_P1;SDS_P2;PMS_P1;PMS_P2;Temp;Humidity;BMP_temperature;BMP_pressure;BME280_temperature;BME280_humidity;BME280_pressure;Samples;Min_cycle;Max_cycle;Signal;HPM_P1;HPM_P2
2020/12/10 00:00:58;;;;;;;28.08;22.10;;;;;;;;;;5056657;28;20020;-69
2020/12/10 00:03:23;;;;;;;26.23;21.45;;;;;;;;;;5056353;28;20020;-69
2020/12/10 00:05:48;;;;;;;30.90;21.77;;;;;;;;;;5056633;28;20013;-70
2020/12/10 00:08:13;;;;;;;30.02;21.88;;;;;;;;;;5056786;28;20033;-70
2020/12/10 00:10:38;;;;;;;28.65;21.17;;;;;;;;;;5056688;28;20027;-70
2020/12/10 00:13:04;;;;;;;23.40;19.35;;;;;;;;;;5056049;28;20021;-69
2020/12/10 00:15:29;;;;;;;26.20;19.80;;;;;;;;;;5056274;28;20024;-69
2020/12/10 00:17:54;;;;;;;24.55;19.58;;;;;;;;;;5056409;28;20351;-70
2020/12/10 00:20:19;;;;;;;24.73;20.73;;;;;;;;;;5056292;28;20025;-71
2020/12/10 00:22:45;;;;;;;25.88;19.38;;;;;;;;;;5056099;28;20429;-69
2020/12/10 00:25:10;;;;;;;24.60;20.38;;;;;;;;;;5056013;28;20070;-68
2020/12/10 00:27:35;;;;;;;23.75;19.52;;;;;;;;;;5055858;28;20072;-71
2020/12/10 00:30:02;;;;;;;26.63;19.88;;;;;;;;;;5054874;28;20045;-71
2020/12/10 00:32:27;;;;;;;24.83;20.20;;;;;;;;;;5056033;28;20067;-70
2020/12/10 00:34:55;;;;;;;27.90;20.60;;;;;;;;;;5061460;28;20021;-68
2020/12/10 00:37:20;;;;;;;26.27;21.20;;;;;;;;;;5056314;28;20092;-70
2020/12/10 00:39:46;;;;;;;25.33;20.40;;;;;;;;;;5056282;28;20478;-70
2020/12/10 00:42:11;;;;;;;28.17;20.80;;;;;;;;;;5055906;28;20394;-68
2020/12/10 00:44:36;;;;;;;31.38;22.10;;;;;;;;;;5056196;28;20248;-69
2020/12/10 00:47:01;;;;;;;26.00;21.63;;;;;;;;;;5056000;28;20355;-68
2020/12/10 00:49:26;;;;;;;29.80;21.58;;;;;;;;;;5055946;28;20032;-67
2020/12/10 00:51:52;;;;;;;27.55;21.60;;;;;;;;;;5055531;28;20095;-66
2020/12/10 00:54:18;;;;;;;29.70;21.92;;;;;;;;;;5055704;28;20374;-68
2020/12/10 00:56:43;;;;;;;30.80;23.85;;;;;;;;;;5055710;28;20025;-67
2020/12/10 00:59:09;;;;;;;26.50;21.85;;;;;;;;;;5055709;28;20028;-71
2020/12/10 01:01:34;;;;;;;28.75;23.17;;;;;;;;;;5055397;28;20036;-68
2020/12/10 01:03:59;;;;;;;28.45;22.30;;;;;;;;;;5055843;28;20033;-68
2020/12/10 01:06:25;;;;;;;27.45;22.50;;;;;;;;;;5054976;28;20056;-69
2020/12/10 01:08:50;;;;;;;30.08;23.25;;;;;;;;;;5055597;28;20131;-70
2020/12/10 01:11:15;;;;;;;28.67;22.45;;;;;;;;;;5055337;28;20032;-71
2020/12/10 01:13:41;;;;;;;27.05;22.08;;;;;;;;;;5053748;28;20378;-71
2020/12/10 01:16:06;;;;;;;29.75;22.73;;;;;;;;;;5055552;28;20328;-69
2020/12/10 01:18:31;;;;;;;30.98;22.15;;;;;;;;;;5055624;28;20017;-72
2020/12/10 01:20:56;;;;;;;28.65;21.83;;;;;;;;;;5055446;28;20017;-69
2020/12/10 01:23:21;;;;;;;31.42;23.75;;;;;;;;;;5054941;28;20024;-75
2020/12/10 01:25:46;;;;;;;32.17;23.50;;;;;;;;;;5055187;28;20423;-71
2020/12/10 01:28:12;;;;;;;31.95;23.33;;;;;;;;;;5055234;28;20250;-72
2020/12/10 01:30:37;;;;;;;32.08;23.58;;;;;;;;;;5055529;28;20009;-71
2020/12/10 01:33:02;;;;;;;32.72;23.23;;;;;;;;;;5055373;28;20025;-68
2020/12/10 01:35:27;;;;;;;30.70;22.23;;;;;;;;;;5055387;28;20071;-69
2020/12/10 01:37:53;;;;;;;29.48;22.02;;;;;;;;;;5055426;28;20028;-69
2020/12/10 01:40:18;;;;;;;30.73;23.63;;;;;;;;;;5056420;28;20017;-69
2020/12/10 01:42:43;;;;;;;33.53;24.00;;;;;;;;;;5055799;28;20343;-68
2020/12/10 01:45:08;;;;;;;30.58;22.55;;;;;;;;;;5055778;28;20462;-70
2020/12/10 01:47:34;;;;;;;33.22;23.13;;;;;;;;;;5055711;28;20450;-70
2020/12/10 01:49:59;;;;;;;30.75;22.88;;;;;;;;;;5054208;28;20032;-68
2020/12/10 01:52:24;;;;;;;31.02;22.52;;;;;;;;;;5054943;28;20028;-71
2020/12/10 01:54:49;;;;;;;30.85;23.42;;;;;;;;;;5054856;28;20021;-71
2020/12/10 01:57:14;;;;;;;28.23;21.90;;;;;;;;;;5054905;28;20021;-71
2020/12/10 01:59:40;;;;;;;28.90;22.38;;;;;;;;;;5054509;28;20021;-68
2020/12/10 02:02:05;;;;;;;28.42;22.50;;;;;;;;;;5054252;28;20371;-66
2020/12/10 02:04:34;;;;;;;32.47;22.73;;;;;;;;;;5054210;28;20021;-67
2020/12/10 02:07:00;;;;;;;31.48;23.17;;;;;;;;;;5054096;28;20370;-69
2020/12/10 02:09:25;;;;;;;29.38;21.85;;;;;;;;;;5054140;28;20063;-69
2020/12/10 02:11:51;;;;;;;27.13;22.00;;;;;;;;;;5053675;28;20075;-70
2020/12/10 02:14:16;;;;;;;25.92;20.60;;;;;;;;;;5054211;28;20021;-71
2020/12/10 02:16:41;;;;;;;31.55;22.20;;;;;;;;;;5054393;28;20019;-68
2020/12/10 02:19:07;;;;;;;30.73;22.70;;;;;;;;;;5053359;28;20398;-67
2020/12/10 02:21:32;;;;;;;29.15;22.95;;;;;;;;;;5054101;28;20463;-69
2020/12/10 02:23:57;;;;;;;30.58;22.30;;;;;;;;;;5054069;28;20079;-69
2020/12/10 02:26:23;;;;;;;33.35;23.83;;;;;;;;;;5054019;28;20029;-69
2020/12/10 02:28:48;;;;;;;30.65;22.45;;;;;;;;;;5053899;28;20024;-68
2020/12/10 02:31:19;;;;;;;31.45;23.50;;;;;;;;;;5053758;28;20118;-67
2020/12/10 02:33:44;;;;;;;32.03;22.85;;;;;;;;;;5053505;28;20024;-68
2020/12/10 02:36:09;;;;;;;29.77;22.95;;;;;;;;;;5053188;28;20036;-68
2020/12/10 02:38:35;;;;;;;31.05;22.95;;;;;;;;;;5053647;28;20352;-70
2020/12/10 02:41:00;;;;;;;30.23;23.20;;;;;;;;;;5053767;28;20112;-70
2020/12/10 02:43:25;;;;;;;28.75;22.33;;;;;;;;;;5053600;28;20040;-70
2020/12/10 02:45:50;;;;;;;30.95;23.65;;;;;;;;;;5053551;28;20071;-67
2020/12/10 02:48:15;;;;;;;31.05;23.63;;;;;;;;;;5053452;28;20060;-70
2020/12/10 02:50:40;;;;;;;33.80;24.52;;;;;;;;;;5053743;28;20020;-69
2020/12/10 02:53:06;;;;;;;28.75;22.15;;;;;;;;;;5053131;28;20143;-69
2020/12/10 02:55:31;;;;;;;31.25;23.95;;;;;;;;;;5053298;28;20419;-71
2020/12/10 02:57:56;;;;;;;30.95;22.88;;;;;;;;;;5053197;28;20052;-68
2020/12/10 03:00:21;;;;;;;31.83;24.08;;;;;;;;;;5052984;28;20087;-68
2020/12/10 03:02:46;;;;;;;30.13;23.17;;;;;;;;;;5052766;28;20029;-70
2020/12/10 03:05:12;;;;;;;30.20;23.17;;;;;;;;;;5058140;28;20140;-69
2020/12/10 03:07:37;;;;;;;29.35;22.30;;;;;;;;;;5057077;28;20036;-69
2020/12/10 03:10:03;;;;;;;30.40;22.95;;;;;;;;;;5053122;28;20024;-70
2020/12/10 03:12:28;;;;;;;27.63;22.15;;;;;;;;;;5053532;28;20087;-71
2020/12/10 03:14:54;;;;;;;28.55;22.50;;;;;;;;;;5053309;28;20025;-69
2020/12/10 03:17:19;;;;;;;32.28;23.35;;;;;;;;;;5052832;28;20017;-69
2020/12/10 03:19:44;;;;;;;31.77;24.13;;;;;;;;;;5053250;28;20025;-69
2020/12/10 03:22:11;;;;;;;33.47;23.60;;;;;;;;;;5059025;28;20076;-68
2020/12/10 03:24:36;;;;;;;34.83;24.63;;;;;;;;;;5063208;28;20084;-68
2020/12/10 03:27:01;;;;;;;34.15;24.17;;;;;;;;;;5065684;28;20040;-69
2020/12/10 03:29:26;;;;;;;34.22;24.02;;;;;;;;;;5055334;28;20471;-69
2020/12/10 03:31:52;;;;;;;35.58;23.92;;;;;;;;;;5052720;28;20033;-70
2020/12/10 03:34:19;;;;;;;31.95;24.13;;;;;;;;;;5052837;28;20338;-69
2020/12/10 03:36:55;;;;;;;34.28;23.25;;;;;;;;;;5052833;28;20021;-69
2020/12/10 03:39:21;;;;;;;31.60;22.83;;;;;;;;;;5052591;28;20013;-69
2020/12/10 03:41:47;;;;;;;29.63;23.27;;;;;;;;;;5052916;28;20099;-71
2020/12/10 03:44:13;;;;;;;30.95;22.55;;;;;;;;;;5062620;28;20048;-67
2020/12/10 03:46:38;;;;;;;31.60;22.98;;;;;;;;;;5065949;28;20029;-70
2020/12/10 03:49:04;;;;;;;31.25;22.95;;;;;;;;;;5063308;28;20102;-68
2020/12/10 03:51:29;;;;;;;32.10;24.45;;;;;;;;;;5052660;28;20017;-75
2020/12/10 03:53:54;;;;;;;33.95;24.33;;;;;;;;;;5052800;28;20025;-73
2020/12/10 03:56:20;;;;;;;34.28;24.42;;;;;;;;;;5052381;28;20017;-72
2020/12/10 03:58:45;;;;;;;33.75;25.00;;;;;;;;;;5052626;28;20377;-73
2020/12/10 04:01:10;;;;;;;31.67;24.27;;;;;;;;;;5052520;28;20056;-72
2020/12/10 04:03:35;;;;;;;33.37;24.17;;;;;;;;;;5052233;28;20270;-73
2020/12/10 04:06:00;;;;;;;31.25;23.65;;;;;;;;;;5052050;28;20335;-71
2020/12/10 04:08:26;;;;;;;32.97;24.17;;;;;;;;;;5050675;28;20079;-71
2020/12/10 04:10:51;;;;;;;32.80;22.88;;;;;;;;;;5051954;28;20033;-70
2020/12/10 04:13:16;;;;;;;32.17;24.08;;;;;;;;;;5051909;28;20434;-72
2020/12/10 04:15:41;;;;;;;32.78;22.92;;;;;;;;;;5057898;28;20024;-70
2020/12/10 04:18:06;;;;;;;31.15;23.35;;;;;;;;;;5071893;28;20021;-65
2020/12/10 04:20:31;;;;;;;31.57;23.37;;;;;;;;;;5072689;28;20100;-69
2020/12/10 04:22:56;;;;;;;31.85;23.77;;;;;;;;;;5071873;28;20262;-67
2020/12/10 04:25:22;;;;;;;33.28;23.90;;;;;;;;;;5072523;28;20033;-66
2020/12/10 04:27:47;;;;;;;31.60;23.30;;;;;;;;;;5071481;28;20089;-68
2020/12/10 04:30:12;;;;;;;32.40;23.42;;;;;;;;;;5072400;28;20035;-68
2020/12/10 04:32:37;;;;;;;31.77;23.75;;;;;;;;;;5072082;28;20020;-67
2020/12/10 04:35:02;;;;;;;31.98;23.15;;;;;;;;;;5072529;28;20024;-68
2020/12/10 04:37:28;;;;;;;35.83;24.50;;;;;;;;;;5072307;28;20020;-67
2020/12/10 04:39:53;;;;;;;33.63;23.00;;;;;;;;;;5072047;28;20365;-70
2020/12/10 04:42:19;;;;;;;32.83;23.77;;;;;;;;;;5073891;28;20024;-68
2020/12/10 04:44:45;;;;;;;32.72;23.23;;;;;;;;;;5076206;28;20103;-68
2020/12/10 04:47:12;;;;;;;35.10;24.67;;;;;;;;;;5075795;28;20020;-69
2020/12/10 04:49:38;;;;;;;31.67;22.83;;;;;;;;;;5075994;28;20051;-66
2020/12/10 04:52:03;;;;;;;33.63;23.08;;;;;;;;;;5075415;28;20025;-66
2020/12/10 04:54:29;;;;;;;33.50;23.15;;;;;;;;;;5075533;28;20023;-70
2020/12/10 04:56:55;;;;;;;33.15;23.10;;;;;;;;;;5074159;28;20340;-66
2020/12/10 04:59:20;;;;;;;32.95;23.60;;;;;;;;;;5075510;28;20013;-67
2020/12/10 05:01:45;;;;;;;32.92;22.95;;;;;;;;;;5075043;28;20023;-69
2020/12/10 05:04:11;;;;;;;34.78;24.45;;;;;;;;;;5075553;28;20024;-68
2020/12/10 05:06:47;;;;;;;31.33;23.27;;;;;;;;;;5074953;28;20033;-69
2020/12/10 05:09:13;;;;;;;34.83;23.88;;;;;;;;;;5075296;28;20024;-69
2020/12/10 05:11:38;;;;;;;35.00;22.75;;;;;;;;;;5074823;28;20016;-69
2020/12/10 05:14:03;;;;;;;36.67;24.50;;;;;;;;;;5075460;28;20121;-69
2020/12/10 05:16:28;;;;;;;32.72;22.67;;;;;;;;;;5075517;28;20017;-68
2020/12/10 05:18:53;;;;;;;37.08;24.65;;;;;;;;;;5075568;28;20093;-65
2020/12/10 05:21:19;;;;;;;37.50;23.23;;;;;;;;;;5075677;28;20024;-66
2020/12/10 05:23:44;;;;;;;36.55;24.85;;;;;;;;;;5075033;28;20023;-69
2020/12/10 05:26:09;;;;;;;34.90;23.85;;;;;;;;;;5075192;28;20085;-68
2020/12/10 05:28:42;;;;;;;36.65;23.77;;;;;;;;;;5074909;28;20517;-67
2020/12/10 05:31:08;;;;;;;36.22;23.23;;;;;;;;;;5075094;28;20070;-69
2020/12/10 05:33:34;;;;;;;36.42;23.90;;;;;;;;;;5074801;28;20492;-65
2020/12/10 05:36:09;;;;;;;36.70;25.17;;;;;;;;;;5074995;28;20056;-70
2020/12/10 05:38:51;;;;;;;32.53;23.52;;;;;;;;;;5074888;28;20469;-67
2020/12/10 05:41:20;;;;;;;38.05;24.02;;;;;;;;;;5074806;28;20020;-67
2020/12/10 05:43:46;;;;;;;37.03;23.92;;;;;;;;;;5074854;28;20028;-68
2020/12/10 05:46:19;;;;;;;36.35;22.92;;;;;;;;;;5074758;28;20066;-69
2020/12/10 05:48:45;;;;;;;36.63;23.55;;;;;;;;;;5073282;28;20025;-70
2020/12/10 05:51:14;;;;;;;32.55;22.33;;;;;;;;;;5074435;28;20013;-69
2020/12/10 05:53:40;;;;;;;37.50;24.27;;;;;;;;;;5073023;28;20077;-65
2020/12/10 05:56:09;;;;;;;36.33;24.98;;;;;;;;;;5074399;28;20021;-67
2020/12/10 05:58:34;;;;;;;34.38;22.38;;;;;;;;;;5074196;28;20419;-70
2020/12/10 06:00:59;;;;;;;31.42;23.27;;;;;;;;;;5074193;28;20024;-65
2020/12/10 06:03:25;;;;;;;35.77;22.87;;;;;;;;;;5073580;28;20135;-68
2020/12/10 06:05:51;;;;;;;32.47;21.95;;;;;;;;;;5074341;28;20263;-70
2020/12/10 06:08:17;;;;;;;32.88;22.80;;;;;;;;;;5073904;28;20036;-70
2020/12/10 06:10:42;;;;;;;32.72;23.10;;;;;;;;;;5074125;28;20016;-65
2020/12/10 06:13:08;;;;;;;34.33;23.45;;;;;;;;;;5073969;28;20017;-71
2020/12/10 06:15:34;;;;;;;34.80;23.17;;;;;;;;;;5074398;28;20405;-66
2020/12/10 06:18:10;;;;;;;34.50;23.23;;;;;;;;;;5074224;28;20466;-66
2020/12/10 06:20:38;;;;;;;34.85;23.75;;;;;;;;;;5073839;28;20469;-67
2020/12/10 06:23:22;;;;;;;30.27;22.05;;;;;;;;;;5073557;28;20108;-65
2020/12/10 06:25:47;;;;;;;35.13;23.33;;;;;;;;;;5074205;28;20024;-68
2020/12/10 06:28:17;;;;;;;33.70;21.92;;;;;;;;;;5072635;28;20042;-69
2020/12/10 06:30:42;;;;;;;34.03;22.63;;;;;;;;;;5073791;28;20458;-68
2020/12/10 06:33:07;;;;;;;34.75;22.40;;;;;;;;;;5073660;28;20031;-69
2020/12/10 06:35:35;;;;;;;37.05;23.75;;;;;;;;;;5073724;28;20025;-70
2020/12/10 06:38:10;;;;;;;32.33;21.60;;;;;;;;;;5073569;28;20492;-65
2020/12/10 06:40:39;;;;;;;31.55;21.38;;;;;;;;;;5073788;28;20062;-67
2020/12/10 06:43:05;;;;;;;33.13;21.83;;;;;;;;;;5072905;28;20100;-67
2020/12/10 06:45:34;;;;;;;31.10;21.40;;;;;;;;;;5073010;28;20104;-72
2020/12/10 06:48:01;;;;;;;32.55;21.42;;;;;;;;;;5073170;28;20036;-69
2020/12/10 06:50:32;;;;;;;28.80;20.70;;;;;;;;;;5073403;28;20063;-69
2020/12/10 06:53:14;;;;;;;31.70;20.10;;;;;;;;;;5072856;28;20020;-70
2020/12/10 06:58:44;;;;;;;34.00;21.30;;;;;;;;;;5072973;28;20024;-66
2020/12/10 07:01:23;;;;;;;31.30;20.52;;;;;;;;;;5071334;28;20017;-67
2020/12/10 07:03:51;;;;;;;34.75;21.67;;;;;;;;;;5072659;28;20051;-64
2020/12/10 07:06:20;;;;;;;28.15;19.92;;;;;;;;;;5072384;28;20020;-67
2020/12/10 07:09:08;;;;;;;35.92;21.00;;;;;;;;;;5073040;28;20103;-71
2020/12/10 07:11:34;;;;;;;28.17;20.13;;;;;;;;;;5072944;28;20016;-70
2020/12/10 07:14:00;;;;;;;28.63;19.80;;;;;;;;;;5072155;28;20021;-69
2020/12/10 07:16:30;;;;;;;29.75;19.45;;;;;;;;;;5073353;28;20016;-69
2020/12/10 07:18:55;;;;;;;24.73;18.48;;;;;;;;;;5071711;28;20027;-73
2020/12/10 07:21:22;;;;;;;31.02;20.48;;;;;;;;;;5072766;28;20024;-72
2020/12/10 07:23:47;;;;;;;30.80;20.05;;;;;;;;;;5073042;28;20539;-70
2020/12/10 07:26:12;;;;;;;29.35;20.08;;;;;;;;;;5073412;28;20028;-71
2020/12/10 07:28:37;;;;;;;30.13;20.67;;;;;;;;;;5073616;28;20020;-71
2020/12/10 07:31:03;;;;;;;27.63;19.95;;;;;;;;;;5072915;28;20409;-72
2020/12/10 07:33:28;;;;;;;26.95;19.52;;;;;;;;;;5072324;28;20032;-70
2020/12/10 07:35:53;;;;;;;29.45;21.23;;;;;;;;;;5072437;28;20020;-74
2020/12/10 07:38:18;;;;;;;27.73;18.83;;;;;;;;;;5073422;28;20037;-70
2020/12/10 07:40:52;;;;;;;33.83;20.70;;;;;;;;;;5072058;28;20470;-72
2020/12/10 07:43:17;;;;;;;27.80;19.92;;;;;;;;;;5072868;28;20561;-71
2020/12/10 07:45:42;;;;;;;28.90;18.25;;;;;;;;;;5072596;28;20036;-73
2020/12/10 07:48:07;;;;;;;29.50;18.58;;;;;;;;;;5072638;28;20027;-74
2020/12/10 07:50:35;;;;;;;26.48;19.25;;;;;;;;;;5072774;28;20485;-71
2020/12/10 07:53:04;;;;;;;26.73;19.05;;;;;;;;;;5070759;28;20382;-72
2020/12/10 07:55:30;;;;;;;26.70;19.08;;;;;;;;;;5072272;28;20032;-71
2020/12/10 07:57:57;;;;;;;28.10;18.25;;;;;;;;;;5072493;28;20036;-74
2020/12/10 08:00:24;;;;;;;24.13;19.10;;;;;;;;;;5072547;28;20008;-70
2020/12/10 08:02:52;;;;;;;26.85;19.65;;;;;;;;;;5072056;28;20021;-71
2020/12/10 08:05:17;;;;;;;27.00;19.15;;;;;;;;;;5072201;28;20023;-69
2020/12/10 08:08:01;;;;;;;24.35;17.67;;;;;;;;;;5072452;28;20029;-70
2020/12/10 08:10:27;;;;;;;24.67;18.85;;;;;;;;;;5071723;28;20024;-70
2020/12/10 08:13:11;;;;;;;28.85;18.73;;;;;;;;;;5070495;28;20453;-68
2020/12/10 08:15:37;;;;;;;28.48;18.40;;;;;;;;;;5070094;28;20033;-72
2020/12/10 08:18:03;;;;;;;23.95;18.05;;;;;;;;;;5075140;28;20025;-69
2020/12/10 08:20:39;;;;;;;24.70;18.20;;;;;;;;;;5076221;28;20032;-70
2020/12/10 08:23:05;;;;;;;28.00;18.33;;;;;;;;;;5074917;28;20463;-72
2020/12/10 08:25:30;;;;;;;21.63;16.88;;;;;;;;;;5076214;28;20039;-71
2020/12/10 08:27:55;;;;;;;23.70;16.50;;;;;;;;;;5076160;28;20021;-70
2020/12/10 08:30:20;;;;;;;23.05;17.05;;;;;;;;;;5076239;28;20466;-71
2020/12/10 08:32:49;;;;;;;30.35;18.27;;;;;;;;;;5075546;28;20039;-70
2020/12/10 08:35:15;;;;;;;24.60;17.95;;;;;;;;;;5075578;28;20017;-68
2020/12/10 08:37:41;;;;;;;22.33;17.05;;;;;;;;;;5075848;28;20012;-68
2020/12/10 08:40:07;;;;;;;29.20;18.23;;;;;;;;;;5075834;28;20044;-71
2020/12/10 08:42:32;;;;;;;24.55;17.85;;;;;;;;;;5075600;28;20470;-69
2020/12/10 08:44:57;;;;;;;24.65;17.48;;;;;;;;;;5075889;28;20021;-70
2020/12/10 08:47:26;;;;;;;20.20;16.92;;;;;;;;;;5075568;28;20110;-69
2020/12/10 08:50:22;;;;;;;22.48;17.05;;;;;;;;;;5075503;28;20035;-70
2020/12/10 08:52:47;;;;;;;22.15;16.60;;;;;;;;;;5075504;28;20029;-71
2020/12/10 08:55:13;;;;;;;23.38;16.80;;;;;;;;;;5075527;28;20032;-67
2020/12/10 08:57:47;;;;;;;20.88;16.40;;;;;;;;;;5075430;28;20028;-72
2020/12/10 09:00:13;;;;;;;23.58;17.65;;;;;;;;;;5073473;28;20473;-70
2020/12/10 09:02:38;;;;;;;19.75;15.10;;;;;;;;;;5072742;28;20039;-71
2020/12/10 09:05:03;;;;;;;22.80;17.27;;;;;;;;;;5074590;28;20048;-67
2020/12/10 09:07:28;;;;;;;20.67;16.90;;;;;;;;;;5074583;28;20333;-69
2020/12/10 09:09:53;;;;;;;22.50;17.27;;;;;;;;;;5075040;28;20263;-70
2020/12/10 09:12:18;;;;;;;23.70;17.02;;;;;;;;;;5075048;28;20389;-71
2020/12/10 09:14:44;;;;;;;24.77;18.15;;;;;;;;;;5074691;28;20039;-71
2020/12/10 09:17:09;;;;;;;21.08;15.48;;;;;;;;;;5075130;28;20016;-72
2020/12/10 09:19:34;;;;;;;19.17;15.88;;;;;;;;;;5074969;28;20438;-72
2020/12/10 09:21:59;;;;;;;22.33;16.27;;;;;;;;;;5074614;28;20012;-73
2020/12/10 09:24:24;;;;;;;20.03;15.83;;;;;;;;;;5074896;28;20063;-70
2020/12/10 09:26:50;;;;;;;19.20;15.53;;;;;;;;;;5074800;28;20274;-71
2020/12/10 09:29:15;;;;;;;20.73;15.48;;;;;;;;;;5074851;28;20328;-71
2020/12/10 09:31:40;;;;;;;20.60;16.30;;;;;;;;;;5074647;28;20024;-72
2020/12/10 09:34:05;;;;;;;21.38;15.65;;;;;;;;;;5074619;28;20311;-70
2020/12/10 09:36:31;;;;;;;21.57;16.00;;;;;;;;;;5077023;28;20044;-73
2020/12/10 09:38:56;;;;;;;19.08;15.07;;;;;;;;;;5072981;28;20732;-69
2020/12/10 09:41:22;;;;;;;20.80;16.48;;;;;;;;;;5074280;28;20028;-70
2020/12/10 09:43:47;;;;;;;19.23;15.73;;;;;;;;;;5074197;28;20016;-71
2020/12/10 09:46:14;;;;;;;20.75;15.40;;;;;;;;;;5076141;28;20482;-72
2020/12/10 09:48:39;;;;;;;18.15;14.65;;;;;;;;;;5075601;28;20099;-71
2020/12/10 09:51:05;;;;;;;18.60;15.05;;;;;;;;;;5079503;28;20059;-70
2020/12/10 09:53:40;;;;;;;16.67;14.25;;;;;;;;;;5078358;28;20424;-71
2020/12/10 09:58:44;;;;;;;15.23;13.52;;;;;;;;;;5076439;28;20377;-70
2020/12/10 10:01:10;;;;;;;16.85;14.07;;;;;;;;;;5074245;28;20017;-71
2020/12/10 10:03:35;;;;;;;19.35;15.93;;;;;;;;;;5075331;28;20058;-71
2020/12/10 10:06:01;;;;;;;17.65;13.90;;;;;;;;;;5075325;28;20021;-72
2020/12/10 10:08:27;;;;;;;18.77;14.05;;;;;;;;;;5075236;28;20055;-71
2020/12/10 10:10:52;;;;;;;18.20;13.63;;;;;;;;;;5074477;28;20394;-71
2020/12/10 10:13:17;;;;;;;16.47;13.23;;;;;;;;;;5075747;28;20032;-70
2020/12/10 10:15:43;;;;;;;17.50;12.85;;;;;;;;;;5075373;28;20343;-73
2020/12/10 10:18:08;;;;;;;14.48;12.93;;;;;;;;;;5076072;28;20032;-74
2020/12/10 10:20:34;;;;;;;17.63;13.55;;;;;;;;;;5076671;28;20048;-74
2020/12/10 10:22:59;;;;;;;16.92;13.07;;;;;;;;;;5075523;28;20025;-71
2020/12/10 10:25:25;;;;;;;20.48;13.00;;;;;;;;;;5077004;28;20032;-71
2020/12/10 10:27:50;;;;;;;20.10;14.15;;;;;;;;;;5075001;28;20027;-71
2020/12/10 10:30:16;;;;;;;18.65;13.30;;;;;;;;;;5074994;28;20040;-73
2020/12/10 10:32:41;;;;;;;22.35;14.23;;;;;;;;;;5076317;28;20029;-73
2020/12/10 10:35:06;;;;;;;16.67;13.13;;;;;;;;;;5076712;28;20096;-71
2020/12/10 10:37:31;;;;;;;24.38;12.98;;;;;;;;;;5074272;28;20247;-71
2020/12/10 10:39:56;;;;;;;16.40;12.63;;;;;;;;;;5072821;28;20035;-70
2020/12/10 10:42:22;;;;;;;16.92;12.35;;;;;;;;;;5073098;28;20035;-73
2020/12/10 10:44:47;;;;;;;18.40;13.07;;;;;;;;;;5073036;28;20020;-73
2020/12/10 10:47:12;;;;;;;17.40;13.07;;;;;;;;;;5073188;28;20351;-72
2020/12/10 10:49:37;;;;;;;16.00;13.20;;;;;;;;;;5073319;28;20377;-73
2020/12/10 10:52:02;;;;;;;16.48;12.70;;;;;;;;;;5071673;28;20020;-72
2020/12/10 10:54:28;;;;;;;16.08;12.98;;;;;;;;;;5073190;28;20020;-73
2020/12/10 10:56:53;;;;;;;18.95;12.00;;;;;;;;;;5073244;28;20084;-75
2020/12/10 10:59:18;;;;;;;15.93;12.63;;;;;;;;;;5072914;28;20028;-70
2020/12/10 11:01:43;;;;;;;14.77;12.05;;;;;;;;;;5072615;28;20051;-73
2020/12/10 11:04:09;;;;;;;13.63;11.73;;;;;;;;;;5073228;28;20028;-71
2020/12/10 11:06:34;;;;;;;17.85;12.18;;;;;;;;;;5072665;28;20116;-74
2020/12/10 11:08:59;;;;;;;18.70;12.27;;;;;;;;;;5072953;28;20115;-72
2020/12/10 11:11:24;;;;;;;12.52;11.05;;;;;;;;;;5072401;28;20021;-72
2020/12/10 11:13:50;;;;;;;15.00;12.57;;;;;;;;;;5072567;28;20039;-69
2020/12/10 11:16:15;;;;;;;16.15;11.63;;;;;;;;;;5072723;28;20045;-71
2020/12/10 11:18:41;;;;;;;14.05;11.73;;;;;;;;;;5071072;28;20517;-71
2020/12/10 11:21:06;;;;;;;18.25;11.18;;;;;;;;;;5071128;28;20135;-71
2020/12/10 11:23:31;;;;;;;14.43;12.20;;;;;;;;;;5072318;28;20012;-72
2020/12/10 11:25:56;;;;;;;13.45;10.15;;;;;;;;;;5072502;28;20449;-70
2020/12/10 11:28:22;;;;;;;13.30;10.87;;;;;;;;;;5072602;28;20381;-72
2020/12/10 11:30:47;;;;;;;12.10;10.32;;;;;;;;;;5072576;28;20266;-70
2020/12/10 11:33:12;;;;;;;13.50;10.70;;;;;;;;;;5070840;28;20046;-70
2020/12/10 11:35:37;;;;;;;12.95;9.68;;;;;;;;;;5072313;28;20286;-71
2020/12/10 11:38:03;;;;;;;11.25;9.35;;;;;;;;;;5072466;28;20056;-73
2020/12/10 11:40:28;;;;;;;12.60;10.10;;;;;;;;;;5072185;28;20024;-72
2020/12/10 11:42:53;;;;;;;15.20;10.77;;;;;;;;;;5072115;28;20027;-73
2020/12/10 11:45:18;;;;;;;15.05;11.05;;;;;;;;;;5072273;28;20736;-71
2020/12/10 11:47:46;;;;;;;14.32;10.38;;;;;;;;;;5072023;28;20016;-71
2020/12/10 11:50:18;;;;;;;13.48;10.25;;;;;;;;;;5072243;28;20024;-67
2020/12/10 11:52:45;;;;;;;12.65;10.60;;;;;;;;;;5072215;28;20051;-68
2020/12/10 11:55:10;;;;;;;12.80;11.05;;;;;;;;;;5072272;28;20021;-68
2020/12/10 11:57:35;;;;;;;15.60;11.80;;;;;;;;;;5071986;28;20024;-67
2020/12/10 12:00:00;;;;;;;15.82;11.60;;;;;;;;;;5071148;28;20031;-71
2020/12/10 12:02:26;;;;;;;14.23;12.13;;;;;;;;;;5072562;28;20327;-71
2020/12/10 12:04:51;;;;;;;14.48;11.82;;;;;;;;;;5072288;28;20016;-71
2020/12/10 12:07:16;;;;;;;14.60;11.35;;;;;;;;;;5072407;28;20123;-72
2020/12/10 12:09:41;;;;;;;13.68;12.27;;;;;;;;;;5072644;28;20045;-71
2020/12/10 12:14:55;;;;;;;12.93;10.63;;;;;;;;;;5072361;28;20290;-70
2020/12/10 12:17:20;;;;;;;12.27;10.13;;;;;;;;;;5071891;28;20358;-70
2020/12/10 12:19:45;;;;;;;15.00;10.38;;;;;;;;;;5071939;28;20020;-72
2020/12/10 12:22:11;;;;;;;13.13;11.02;;;;;;;;;;5071782;28;20027;-72
2020/12/10 12:24:36;;;;;;;17.42;10.13;;;;;;;;;;5071860;28;20021;-70
2020/12/10 12:27:04;;;;;;;11.65;10.15;;;;;;;;;;5072307;28;20186;-71
2020/12/10 12:29:30;;;;;;;12.77;10.75;;;;;;;;;;5071894;28;20036;-71
2020/12/10 12:31:55;;;;;;;12.98;10.88;;;;;;;;;;5071498;28;20016;-72
2020/12/10 12:34:20;;;;;;;14.60;10.50;;;;;;;;;;5071360;28;20374;-69
2020/12/10 12:36:46;;;;;;;13.40;10.30;;;;;;;;;;5071788;28;20255;-74
2020/12/10 12:39:13;;;;;;;14.27;10.75;;;;;;;;;;5072083;28;20722;-70
2020/12/10 12:41:38;;;;;;;13.52;10.73;;;;;;;;;;5070181;28;20044;-75
2020/12/10 12:44:03;;;;;;;13.98;10.82;;;;;;;;;;5071558;28;20462;-70
2020/12/10 12:46:29;;;;;;;15.70;11.77;;;;;;;;;;5056551;28;20041;-69
2020/12/10 12:48:54;;;;;;;16.60;10.97;;;;;;;;;;5063844;28;20316;-68
2020/12/10 12:51:19;;;;;;;14.60;11.68;;;;;;;;;;5071639;28;20346;-70
2020/12/10 12:53:45;;;;;;;13.40;11.30;;;;;;;;;;5071648;28;20354;-70
2020/12/10 12:56:11;;;;;;;13.30;11.55;;;;;;;;;;5071574;28;20052;-71
2020/12/10 12:58:36;;;;;;;17.27;12.63;;;;;;;;;;5071515;28;20017;-70
2020/12/10 13:01:01;;;;;;;18.17;12.43;;;;;;;;;;5071819;28;20401;-68
2020/12/10 13:03:27;;;;;;;17.70;11.93;;;;;;;;;;5073591;28;20020;-71
2020/12/10 13:05:52;;;;;;;17.07;13.27;;;;;;;;;;5075225;28;20062;-67
2020/12/10 13:08:18;;;;;;;16.67;12.07;;;;;;;;;;5075350;28;20590;-68
2020/12/10 13:10:43;;;;;;;18.10;12.82;;;;;;;;;;5075653;28;20258;-70
2020/12/10 13:13:09;;;;;;;17.08;11.73;;;;;;;;;;5075139;28;20032;-69
2020/12/10 13:15:34;;;;;;;15.88;11.38;;;;;;;;;;5074632;28;20470;-70
2020/12/10 13:18:00;;;;;;;15.00;11.32;;;;;;;;;;5074863;28;20438;-70
2020/12/10 13:20:27;;;;;;;13.13;10.02;;;;;;;;;;5076963;28;20382;-71
2020/12/10 13:22:52;;;;;;;16.65;11.00;;;;;;;;;;5074970;28;20413;-70
2020/12/10 13:25:17;;;;;;;16.23;11.20;;;;;;;;;;5075081;28;20052;-70
2020/12/10 13:27:42;;;;;;;14.23;10.52;;;;;;;;;;5075037;28;20297;-70
2020/12/10 13:30:07;;;;;;;12.60;9.70;;;;;;;;;;5066332;28;20024;-75
2020/12/10 13:32:33;;;;;;;13.27;9.60;;;;;;;;;;5074430;28;20267;-71
2020/12/10 13:34:58;;;;;;;15.90;9.80;;;;;;;;;;5074412;28;20389;-71
2020/12/10 13:37:23;;;;;;;9.88;8.45;;;;;;;;;;5074485;28;20029;-71
2020/12/10 13:39:48;;;;;;;10.38;8.07;;;;;;;;;;5073734;28;20031;-69
2020/12/10 13:42:16;;;;;;;10.50;8.30;;;;;;;;;;5072528;28;20017;-69
2020/12/10 13:44:42;;;;;;;10.68;9.02;;;;;;;;;;5073949;28;20020;-69
2020/12/10 13:47:07;;;;;;;10.90;8.68;;;;;;;;;;5074108;28;20029;-71
2020/12/10 13:49:32;;;;;;;10.70;8.47;;;;;;;;;;5074467;28;20393;-70
2020/12/10 13:51:57;;;;;;;11.30;8.80;;;;;;;;;;5074273;28;20255;-70
2020/12/10 13:54:22;;;;;;;10.02;8.75;;;;;;;;;;5074121;28;20763;-70
2020/12/10 13:56:51;;;;;;;13.05;9.32;;;;;;;;;;5074271;28;20100;-71
2020/12/10 13:59:17;;;;;;;12.50;8.98;;;;;;;;;;5074249;28;20017;-70
2020/12/10 14:01:43;;;;;;;10.27;8.90;;;;;;;;;;5073887;28;20072;-70
2020/12/10 14:04:08;;;;;;;14.48;9.73;;;;;;;;;;5073955;28;20013;-70
2020/12/10 14:06:34;;;;;;;14.38;10.18;;;;;;;;;;5059298;28;20028;-70
2020/12/10 14:09:00;;;;;;;13.07;10.05;;;;;;;;;;5066099;28;20539;-71
2020/12/10 14:11:26;;;;;;;13.77;9.80;;;;;;;;;;5073169;28;20029;-70
2020/12/10 14:13:51;;;;;;;13.77;9.93;;;;;;;;;;5072996;28;20032;-71
2020/12/10 14:16:17;;;;;;;13.40;9.60;;;;;;;;;;5073042;28;20024;-70
2020/12/10 14:18:42;;;;;;;9.68;8.68;;;;;;;;;;5073615;28;20013;-69
2020/12/10 14:21:07;;;;;;;12.27;9.18;;;;;;;;;;5078656;28;20024;-66